Time;durP1;ratioP1;P1;durP2;ratioP2;P2;SDS_P1;SDS_P2;PMS_P1;PMS_P2;Temp;Humidity;BMP_temperature;BMP_pressure;BME280_temperature;BME280_humidity;BME280_pressure;Samples;Min_cycle;Max_cycle;Signal;HPM_P1;HPM_P2
2021/10/31 00:01:47;;;;;;;5.97;2.47;;;;;;;12.15;85.13;96212.13;5076286;28;20173;-64
2021/10/31 00:04:13;;;;;;;2.43;2.17;;;;;;;12.21;84.94;96222.41;5072494;28;20233;-64
2021/10/31 00:06:38;;;;;;;2.83;2.43;;;;;;;12.19;85.54;96223.72;5072678;28;20181;-64
2021/10/31 00:09:07;;;;;;;2.70;2.50;;;;;;;12.12;85.61;96218.66;5088636;28;20267;-64
2021/10/31 00:11:34;;;;;;;2.80;2.50;;;;;;;11.94;86.63;96222.44;5075875;28;20177;-63
2021/10/31 00:13:59;;;;;;;2.67;2.33;;;;;;;11.95;86.88;96228.50;5092236;28;20191;-63
2021/10/31 00:16:25;;;;;;;2.80;2.50;;;;;;;11.89;87.88;96224.22;5092087;28;20188;-63
2021/10/31 00:18:51;;;;;;;2.03;1.93;;;;;;;11.82;88.98;96227.06;5081879;28;20181;-63
2021/10/31 00:21:16;;;;;;;3.30;2.40;;;;;;;11.95;88.91;96234.53;5084920;28;20184;-63
2021/10/31 00:23:42;;;;;;;2.30;2.10;;;;;;;11.90;89.80;96236.31;5075296;28;20197;-64
2021/10/31 00:26:07;;;;;;;3.20;2.13;;;;;;;12.05;89.62;96237.25;5065380;28;20177;-63
2021/10/31 00:28:32;;;;;;;2.13;1.93;;;;;;;12.09;90.35;96238.34;5082832;28;20593;-63
2021/10/31 00:30:58;;;;;;;2.37;1.97;;;;;;;12.03;91.16;96242.00;5094346;28;20268;-63
2021/10/31 00:33:23;;;;;;;1.97;1.77;;;;;;;12.12;91.17;96246.78;5089052;28;20192;-63
2021/10/31 00:35:49;;;;;;;2.77;1.90;;;;;;;12.14;91.61;96248.13;5076181;28;20625;-63
2021/10/31 00:38:14;;;;;;;2.40;2.20;;;;;;;12.15;91.72;96247.06;5075827;28;20731;-64
2021/10/31 00:40:41;;;;;;;5.03;2.83;;;;;;;12.20;91.42;96244.50;5087119;28;20185;-66
2021/10/31 00:43:06;;;;;;;2.03;1.93;;;;;;;12.14;92.00;96242.88;5084135;28;20240;-66
2021/10/31 00:45:31;;;;;;;1.60;1.50;;;;;;;12.21;91.75;96246.06;5096114;28;20276;-64
2021/10/31 00:47:57;;;;;;;3.03;1.93;;;;;;;12.13;92.61;96248.38;5092647;28;20527;-64
2021/10/31 00:50:22;;;;;;;1.60;1.50;;;;;;;12.07;93.24;96245.69;5086813;28;20192;-64
2021/10/31 00:52:48;;;;;;;2.10;2.00;;;;;;;11.98;93.61;96257.66;5076089;28;20185;-64
2021/10/31 00:55:15;;;;;;;1.77;1.67;;;;;;;12.03;93.39;96252.50;5075970;28;20189;-64
2021/10/31 00:57:41;;;;;;;2.00;1.90;;;;;;;11.97;93.35;96252.69;5075987;28;20260;-64
2021/10/31 01:00:10;;;;;;;1.60;1.50;;;;;;;11.91;94.17;96254.47;5076940;28;20272;-64
2021/10/31 01:02:35;;;;;;;2.10;1.90;;;;;;;11.92;93.70;96250.81;5091375;28;20260;-64
2021/10/31 01:05:04;;;;;;;1.63;1.57;;;;;;;11.85;93.63;96244.94;5075917;28;20327;-64
2021/10/31 01:07:49;;;;;;;2.03;1.90;;;;;;;11.91;93.60;96237.91;5081335;28;20194;-64
2021/10/31 01:10:27;;;;;;;1.97;1.80;;;;;;;11.77;93.86;96234.88;5095091;28;20208;-65
2021/10/31 01:12:58;;;;;;;1.80;1.70;;;;;;;11.88;93.54;96227.91;5088422;28;20173;-65
2021/10/31 01:15:49;;;;;;;1.70;1.60;;;;;;;11.78;93.60;96227.78;5075529;28;20209;-64
2021/10/31 01:18:33;;;;;;;1.60;1.50;;;;;;;11.77;93.50;96232.25;5081418;28;20652;-64
2021/10/31 01:21:17;;;;;;;1.57;1.47;;;;;;;11.90;92.67;96244.22;5075024;28;20227;-64
2021/10/31 01:24:20;;;;;;;1.90;1.70;;;;;;;11.77;93.30;96239.34;5075310;28;20201;-64
2021/10/31 01:27:14;;;;;;;2.00;1.90;;;;;;;11.73;93.56;96239.03;5069690;28;20536;-64
2021/10/31 01:29:50;;;;;;;1.70;1.60;;;;;;;11.65;93.75;96242.06;5083243;28;20202;-64
2021/10/31 01:32:33;;;;;;;1.77;1.67;;;;;;;11.61;93.74;96240.97;5074282;28;20193;-64
2021/10/31 01:35:12;;;;;;;1.77;1.67;;;;;;;11.58;93.90;96239.66;5092746;28;20222;-64
2021/10/31 01:38:06;;;;;;;1.80;1.70;;;;;;;11.63;93.48;96233.66;5086981;28;20180;-64
2021/10/31 01:40:48;;;;;;;2.23;1.77;;;;;;;11.64;93.32;96237.88;5071145;28;20227;-64
2021/10/31 01:43:32;;;;;;;3.73;1.70;;;;;;;11.53;93.88;96244.84;5079816;28;20207;-64
2021/10/31 01:46:21;;;;;;;2.47;1.83;;;;;;;11.57;93.67;96247.78;5079422;28;20634;-64
2021/10/31 01:49:14;;;;;;;2.17;1.90;;;;;;;11.58;93.62;96244.91;5082372;28;20181;-64
2021/10/31 01:51:45;;;;;;;1.90;1.80;;;;;;;11.46;93.63;96240.81;5082444;28;20172;-64
2021/10/31 01:54:19;;;;;;;3.27;2.03;;;;;;;11.41;94.20;96232.88;5093595;28;20188;-64
2021/10/31 01:56:49;;;;;;;2.17;2.00;;;;;;;11.43;93.37;96230.78;5083629;28;20180;-64
2021/10/31 01:59:21;;;;;;;2.10;1.97;;;;;;;11.45;93.29;96233.97;5077150;28;20192;-64
2021/10/31 02:01:48;;;;;;;2.13;2.00;;;;;;;11.40;93.84;96236.53;5080192;28;20168;-64
2021/10/31 02:04:17;;;;;;;2.17;2.07;;;;;;;11.43;93.74;96230.78;5080412;28;20205;-64
2021/10/31 02:06:48;;;;;;;2.27;1.93;;;;;;;11.43;93.64;96230.78;5079686;28;20197;-64
2021/10/31 02:09:16;;;;;;;2.10;2.00;;;;;;;11.44;93.50;96233.19;5074745;28;20177;-64
2021/10/31 02:11:43;;;;;;;2.10;1.90;;;;;;;11.56;92.67;96225.97;5073393;28;20189;-64
2021/10/31 02:14:10;;;;;;;4.73;2.00;;;;;;;11.41;93.55;96220.56;5090988;28;20176;-65
2021/10/31 02:16:37;;;;;;;2.30;2.10;;;;;;;11.16;95.04;96231.53;5087151;28;20239;-65
2021/10/31 02:19:06;;;;;;;2.10;1.90;;;;;;;11.14;95.30;96220.50;5085770;28;20525;-66
2021/10/31 02:21:37;;;;;;;2.87;1.73;;;;;;;11.26;94.97;96226.41;5089643;28;20590;-65
2021/10/31 02:24:08;;;;;;;1.97;1.77;;;;;;;11.34;94.39;96225.19;5092458;28;20335;-64
2021/10/31 02:26:37;;;;;;;2.10;2.00;;;;;;;11.28;94.57;96220.94;5091097;28;20182;-66
2021/10/31 02:29:08;;;;;;;3.23;2.23;;;;;;;11.32;94.31;96222.00;5077869;28;20499;-65
2021/10/31 02:31:35;;;;;;;1.83;1.70;;;;;;;11.39;93.99;96208.72;5093507;28;20226;-65
2021/10/31 02:34:01;;;;;;;2.00;1.90;;;;;;;11.38;94.16;96207.91;5082671;28;20310;-65
2021/10/31 02:36:27;;;;;;;2.13;1.93;;;;;;;11.31;94.34;96206.53;5075134;28;20672;-64
2021/10/31 02:38:52;;;;;;;1.90;1.80;;;;;;;11.29;94.73;96203.34;5080396;28;20189;-65
2021/10/31 02:41:18;;;;;;;2.20;2.00;;;;;;;11.41;94.17;96204.81;5092109;28;20625;-65
2021/10/31 02:43:43;;;;;;;1.90;1.73;;;;;;;11.30;95.22;96202.31;5079960;28;20673;-65
2021/10/31 02:46:09;;;;;;;2.13;2.03;;;;;;;11.30;94.51;96202.31;5074975;28;20212;-66
2021/10/31 02:48:37;;;;;;;2.00;1.90;;;;;;;11.37;94.66;96198.47;5068106;28;20180;-65
2021/10/31 02:51:14;;;;;;;2.17;2.03;;;;;;;11.34;94.85;96198.16;5093462;28;20173;-66
2021/10/31 02:53:52;;;;;;;2.37;2.10;;;;;;;11.30;94.98;96199.69;5058707;28;20173;-65
2021/10/31 02:56:32;;;;;;;1.90;1.80;;;;;;;11.40;94.47;96205.06;5091535;28;20255;-65
2021/10/31 02:59:20;;;;;;;1.83;1.73;;;;;;;11.44;94.22;96206.94;5094003;28;20502;-65
2021/10/31 03:01:47;;;;;;;1.90;1.80;;;;;;;11.45;94.35;96205.91;5087386;28;20181;-65
2021/10/31 03:04:16;;;;;;;1.63;1.53;;;;;;;11.45;94.76;96208.53;5079929;28;20320;-65
2021/10/31 03:06:42;;;;;;;1.93;1.70;;;;;;;11.33;95.46;96209.69;5073343;28;20656;-65
2021/10/31 03:09:09;;;;;;;1.90;1.80;;;;;;;11.26;96.23;96208.03;5082133;28;20185;-65
2021/10/31 03:11:34;;;;;;;2.40;1.80;;;;;;;11.34;95.63;96213.91;5078955;28;20696;-65
2021/10/31 03:13:59;;;;;;;2.10;2.00;;;;;;;11.19;96.68;96222.41;5088741;28;20181;-65
2021/10/31 03:16:25;;;;;;;1.80;1.70;;;;;;;11.29;96.18;96219.09;5092755;28;20216;-65
2021/10/31 03:18:50;;;;;;;1.80;1.70;;;;;;;11.11;97.23;96210.50;5082613;28;20187;-65
2021/10/31 03:21:16;;;;;;;2.63;1.70;;;;;;;11.04;97.39;96209.88;5074603;28;20193;-65
2021/10/31 03:23:41;;;;;;;2.20;2.00;;;;;;;10.93;98.16;96208.16;5072858;28;20565;-65
2021/10/31 03:26:07;;;;;;;1.77;1.67;;;;;;;10.92;98.13;96208.41;5073445;28;20215;-65
2021/10/31 03:28:32;;;;;;;1.90;1.80;;;;;;;10.84;99.19;96207.00;5084393;28;20180;-65
2021/10/31 03:30:58;;;;;;;1.83;1.73;;;;;;;10.86;99.21;96212.00;5077417;28;20185;-65
2021/10/31 03:33:23;;;;;;;4.17;1.87;;;;;;;10.89;99.12;96208.88;5080813;28;20200;-67
2021/10/31 03:35:49;;;;;;;1.63;1.53;;;;;;;10.86;99.69;96214.63;5092663;28;20188;-65
2021/10/31 03:38:14;;;;;;;1.60;1.50;;;;;;;10.95;98.44;96207.91;5092319;28;20176;-65
2021/10/31 03:40:40;;;;;;;1.70;1.60;;;;;;;10.81;99.47;96208.25;5088014;28;20188;-66
2021/10/31 03:43:06;;;;;;;1.70;1.60;;;;;;;10.81;100.00;96202.25;5082632;28;20342;-65
2021/10/31 03:45:31;;;;;;;1.60;1.50;;;;;;;10.68;100.00;96192.91;5073185;28;20324;-66
2021/10/31 03:47:57;;;;;;;1.60;1.50;;;;;;;10.63;100.00;96200.69;5074370;28;20274;-65
2021/10/31 03:50:22;;;;;;;2.00;1.80;;;;;;;10.64;100.00;96204.09;5093010;28;20181;-65
2021/10/31 03:52:49;;;;;;;2.77;1.80;;;;;;;10.63;100.00;96200.69;5091426;28;20207;-65
2021/10/31 03:55:15;;;;;;;1.80;1.63;;;;;;;10.70;100.00;96196.06;5091205;28;20204;-65
2021/10/31 03:57:41;;;;;;;2.03;1.93;;;;;;;10.74;99.48;96201.63;5077933;28;20193;-65
2021/10/31 04:00:09;;;;;;;3.10;2.53;;;;;;;10.55;100.00;96210.78;5092372;28;20180;-66
2021/10/31 04:02:36;;;;;;;2.80;2.60;;;;;;;10.37;100.00;96202.13;5080039;28;20237;-66
2021/10/31 04:05:02;;;;;;;4.43;2.50;;;;;;;10.39;100.00;96202.69;5092309;28;20189;-65
2021/10/31 04:07:27;;;;;;;3.00;2.50;;;;;;;10.39;100.00;96201.91;5092240;28;20184;-65
2021/10/31 04:09:53;;;;;;;2.80;2.60;;;;;;;10.28;100.00;96203.56;5091431;28;20345;-64
2021/10/31 04:12:18;;;;;;;2.97;2.57;;;;;;;10.25;100.00;96198.78;5080745;28;20209;-65
2021/10/31 04:14:43;;;;;;;3.20;2.80;;;;;;;10.33;100.00;96193.16;5092373;28;20184;-65
2021/10/31 04:17:09;;;;;;;2.73;2.50;;;;;;;10.42;100.00;96183.09;5092152;28;20184;-64
2021/10/31 04:19:34;;;;;;;3.60;2.57;;;;;;;10.57;100.00;96182.50;5079565;28;20184;-64
2021/10/31 04:22:00;;;;;;;3.13;2.83;;;;;;;10.32;100.00;96188.16;5083780;28;20183;-64
2021/10/31 04:24:25;;;;;;;2.97;2.67;;;;;;;10.51;100.00;96191.34;5079982;28;20291;-64
2021/10/31 04:26:52;;;;;;;2.87;2.60;;;;;;;10.32;100.00;96196.03;5072206;28;20177;-64
2021/10/31 04:29:17;;;;;;;2.97;2.70;;;;;;;10.51;100.00;96189.50;5089906;28;20641;-64
2021/10/31 04:31:43;;;;;;;3.00;2.80;;;;;;;10.46;100.00;96188.63;5084155;28;20183;-64
2021/10/31 04:34:08;;;;;;;3.93;3.50;;;;;;;10.54;100.00;96182.97;5072476;28;20289;-64
2021/10/31 04:36:34;;;;;;;4.97;4.17;;;;;;;10.38;100.00;96180.16;5072338;28;20181;-64
2021/10/31 04:38:59;;;;;;;6.23;5.03;;;;;;;10.33;100.00;96182.69;5072478;28;20184;-63
2021/10/31 04:41:27;;;;;;;5.10;4.60;;;;;;;10.24;100.00;96178.09;5072443;28;20189;-64
2021/10/31 04:43:53;;;;;;;5.47;4.67;;;;;;;10.15;100.00;96176.88;5071053;28;20200;-64
2021/10/31 04:46:18;;;;;;;4.40;4.00;;;;;;;10.08;100.00;96178.88;5071081;28;20638;-65
2021/10/31 04:48:43;;;;;;;4.80;4.00;;;;;;;10.14;100.00;96177.94;5082754;28;20584;-64
2021/10/31 04:51:09;;;;;;;6.30;4.60;;;;;;;10.18;100.00;96184.28;5086630;28;20184;-64
2021/10/31 04:53:35;;;;;;;5.33;4.50;;;;;;;10.41;100.00;96178.88;5091708;28;20181;-63
2021/10/31 04:56:00;;;;;;;7.30;4.90;;;;;;;10.37;100.00;96185.63;5091866;28;20177;-64
2021/10/31 04:58:26;;;;;;;5.33;4.70;;;;;;;10.42;100.00;96178.63;5081138;28;20212;-64
2021/10/31 05:00:52;;;;;;;7.70;4.63;;;;;;;10.24;100.00;96180.72;5073012;28;20685;-64
2021/10/31 05:03:17;;;;;;;6.90;4.80;;;;;;;10.37;100.00;96181.19;5079550;28;20229;-64
2021/10/31 05:05:42;;;;;;;5.23;4.67;;;;;;;10.36;100.00;96184.06;5072122;28;20187;-64
2021/10/31 05:08:08;;;;;;;7.50;5.20;;;;;;;10.31;100.00;96184.75;5073425;28;20185;-64
2021/10/31 05:10:33;;;;;;;5.60;5.00;;;;;;;10.47;100.00;96183.16;5074722;28;20314;-63
2021/10/31 05:12:59;;;;;;;5.70;4.03;;;;;;;10.69;99.09;96175.34;5085278;28;20208;-64
2021/10/31 05:15:24;;;;;;;4.50;4.03;;;;;;;10.57;99.89;96170.22;5095334;28;20207;-64
2021/10/31 05:17:50;;;;;;;4.27;3.87;;;;;;;10.44;100.00;96170.53;5082808;28;20211;-63
2021/10/31 05:20:17;;;;;;;4.30;3.90;;;;;;;10.43;100.00;96168.94;5089818;28;20180;-63
2021/10/31 05:22:42;;;;;;;5.13;4.30;;;;;;;10.67;99.87;96169.53;5087476;28;20219;-64
2021/10/31 05:25:09;;;;;;;4.37;3.83;;;;;;;10.63;100.00;96174.47;5093880;28;20181;-64
2021/10/31 05:27:35;;;;;;;4.10;3.70;;;;;;;10.70;100.00;96159.34;5094546;28;20245;-64
2021/10/31 05:30:02;;;;;;;4.13;3.67;;;;;;;10.70;99.94;96161.22;5093985;28;20183;-64
2021/10/31 05:32:35;;;;;;;3.70;3.40;;;;;;;10.65;100.00;96161.13;5092662;28;20193;-64
2021/10/31 05:35:02;;;;;;;3.90;3.43;;;;;;;10.71;100.00;96157.53;5075457;28;20622;-64
2021/10/31 05:37:36;;;;;;;4.23;3.83;;;;;;;10.54;100.00;96154.94;5075259;28;20188;-64
2021/10/31 05:40:07;;;;;;;5.13;3.53;;;;;;;10.41;100.00;96143.00;5075495;28;20183;-64
2021/10/31 05:42:32;;;;;;;3.40;3.10;;;;;;;10.35;100.00;96151.03;5083098;28;20181;-64
2021/10/31 05:44:58;;;;;;;3.37;3.07;;;;;;;10.51;100.00;96144.16;5093537;28;20272;-64
2021/10/31 05:47:24;;;;;;;2.97;2.73;;;;;;;10.51;100.00;96137.09;5094803;28;20641;-64
2021/10/31 05:49:50;;;;;;;3.20;2.90;;;;;;;10.48;100.00;96132.34;5076684;28;20177;-64
2021/10/31 05:52:15;;;;;;;2.33;2.13;;;;;;;10.52;100.00;96130.84;5090163;28;20203;-64
2021/10/31 05:54:41;;;;;;;2.30;2.13;;;;;;;10.57;100.00;96141.38;5095065;28;20625;-64
2021/10/31 05:57:06;;;;;;;2.13;2.03;;;;;;;10.69;100.00;96133.41;5094795;28;20184;-64
2021/10/31 05:59:32;;;;;;;2.00;1.90;;;;;;;10.84;100.00;96136.22;5094666;28;20187;-64
2021/10/31 06:01:57;;;;;;;2.13;2.00;;;;;;;10.97;100.00;96140.31;5086756;28;20256;-64
2021/10/31 06:04:25;;;;;;;2.20;2.00;;;;;;;11.00;100.00;96147.69;5087366;28;20224;-64
2021/10/31 06:06:51;;;;;;;1.77;1.67;;;;;;;10.93;100.00;96142.59;5093822;28;20172;-64
2021/10/31 06:09:16;;;;;;;2.00;1.90;;;;;;;10.99;99.98;96139.00;5084836;28;20212;-64
2021/10/31 06:11:41;;;;;;;2.53;2.20;;;;;;;10.94;100.00;96141.56;5087887;28;20250;-64
2021/10/31 06:14:07;;;;;;;2.40;2.20;;;;;;;11.14;99.33;96133.16;5077935;28;20276;-64
2021/10/31 06:16:33;;;;;;;2.30;2.10;;;;;;;11.21;98.32;96134.53;5074443;28;20544;-64
2021/10/31 06:18:58;;;;;;;3.23;1.97;;;;;;;11.28;97.86;96134.34;5084520;28;20185;-64
2021/10/31 06:21:23;;;;;;;2.43;2.23;;;;;;;12.13;100.00;96132.78;5076114;28;20231;-63
2021/10/31 06:23:49;;;;;;;2.83;2.60;;;;;;;12.42;94.92;96123.50;5074115;28;20209;-64
2021/10/31 06:26:14;;;;;;;3.00;2.70;;;;;;;12.32;92.92;96134.75;5074523;28;20181;-65
2021/10/31 06:28:40;;;;;;;2.50;2.30;;;;;;;11.83;93.26;96139.38;5086583;28;20269;-64
2021/10/31 06:31:05;;;;;;;3.00;2.57;;;;;;;11.72;94.85;96140.28;5092246;28;20637;-65
2021/10/31 06:33:30;;;;;;;2.73;2.53;;;;;;;11.82;93.90;96136.97;5086028;28;20266;-65
2021/10/31 06:35:56;;;;;;;2.53;2.33;;;;;;;11.84;94.45;96137.53;5087855;28;20177;-64
2021/10/31 06:38:22;;;;;;;2.43;2.23;;;;;;;11.90;94.54;96139.16;5093112;28;20229;-64
2021/10/31 06:40:47;;;;;;;4.33;2.63;;;;;;;12.14;92.41;96131.75;5076677;28;20288;-64
2021/10/31 06:43:12;;;;;;;3.60;3.03;;;;;;;12.12;91.70;96141.69;5082900;28;20285;-64
2021/10/31 06:45:38;;;;;;;3.47;2.93;;;;;;;11.93;92.88;96128.94;5093667;28;20318;-64
2021/10/31 06:48:05;;;;;;;3.33;2.90;;;;;;;11.95;91.90;96132.13;5089837;28;20653;-64
2021/10/31 06:50:31;;;;;;;3.40;3.10;;;;;;;11.87;92.78;96137.06;5087429;28;20581;-64
2021/10/31 06:52:56;;;;;;;3.30;3.00;;;;;;;11.96;92.46;96130.28;5079006;28;20185;-64
2021/10/31 06:55:21;;;;;;;3.90;3.13;;;;;;;12.11;91.53;96129.59;5073314;28;20177;-64
2021/10/31 06:57:47;;;;;;;3.23;2.70;;;;;;;12.13;91.35;96127.53;5073776;28;20215;-65
2021/10/31 07:00:12;;;;;;;3.93;2.60;;;;;;;12.18;91.66;96133.59;5084138;28;20177;-65
2021/10/31 07:02:38;;;;;;;2.77;2.47;;;;;;;12.23;91.37;96127.59;5082796;28;20232;-64
2021/10/31 07:05:04;;;;;;;2.67;2.27;;;;;;;12.38;90.71;96122.41;5091598;28;20184;-64
2021/10/31 07:07:29;;;;;;;3.13;2.70;;;;;;;12.42;89.69;96126.16;5089289;28;20666;-64
2021/10/31 07:09:55;;;;;;;5.33;3.70;;;;;;;12.33;89.40;96123.19;5079291;28;20212;-64
2021/10/31 07:12:20;;;;;;;4.40;3.97;;;;;;;12.27;89.09;96120.78;5075393;28;20184;-64
2021/10/31 07:14:45;;;;;;;4.10;3.73;;;;;;;12.26;89.51;96111.34;5075099;28;20608;-64
2021/10/31 07:17:11;;;;;;;6.63;4.60;;;;;;;12.37;88.24;96118.22;5072479;28;20192;-65
2021/10/31 07:19:36;;;;;;;5.23;4.50;;;;;;;12.33;88.58;96125.03;5083724;28;20230;-64
2021/10/31 07:22:02;;;;;;;5.43;4.60;;;;;;;12.41;88.26;96117.47;5092121;28;20187;-64
2021/10/31 07:24:27;;;;;;;5.43;4.10;;;;;;;12.64;86.76;96120.75;5089183;28;20237;-64
2021/10/31 07:26:53;;;;;;;4.70;4.20;;;;;;;12.91;85.22;96121.38;5092460;28;20215;-65
2021/10/31 07:29:19;;;;;;;4.60;4.17;;;;;;;12.97;85.00;96130.09;5085876;28;20181;-66
2021/10/31 07:31:46;;;;;;;4.40;3.90;;;;;;;12.78;85.61;96127.09;5075991;28;20177;-64
2021/10/31 07:34:12;;;;;;;4.43;4.03;;;;;;;12.73;85.85;96129.72;5084925;28;20534;-65
2021/10/31 07:36:40;;;;;;;4.60;4.17;;;;;;;12.53;86.62;96133.03;5090540;28;20191;-64
2021/10/31 07:39:06;;;;;;;5.03;4.17;;;;;;;12.56;86.65;96129.09;5089101;28;20243;-64
2021/10/31 07:41:31;;;;;;;6.63;3.50;;;;;;;12.31;88.13;96135.00;5073055;28;20181;-63
2021/10/31 07:43:56;;;;;;;4.40;4.00;;;;;;;12.38;87.69;96125.84;5082716;28;20366;-64
2021/10/31 07:46:23;;;;;;;5.77;4.20;;;;;;;12.28;88.39;96128.41;5074392;28;20318;-65
2021/10/31 07:48:48;;;;;;;4.30;3.90;;;;;;;12.42;87.77;96123.50;5084527;28;20191;-65
2021/10/31 07:51:14;;;;;;;6.47;4.43;;;;;;;12.59;87.48;96113.63;5093455;28;20555;-66
2021/10/31 07:53:42;;;;;;;4.80;4.30;;;;;;;12.74;86.75;96112.91;5091955;28;20249;-66
2021/10/31 07:56:13;;;;;;;4.10;3.70;;;;;;;12.80;86.67;96114.50;5086559;28;20186;-65
2021/10/31 07:58:42;;;;;;;5.20;4.70;;;;;;;12.96;85.77;96117.97;5089171;28;20257;-66
2021/10/31 08:01:09;;;;;;;5.40;4.07;;;;;;;13.15;85.46;96112.00;5072852;28;20184;-65
2021/10/31 08:03:34;;;;;;;4.60;3.80;;;;;;;13.00;86.11;96100.63;5082811;28;20228;-65
2021/10/31 08:06:00;;;;;;;5.47;4.00;;;;;;;13.04;85.91;96096.44;5087782;28;20176;-65
2021/10/31 08:08:26;;;;;;;4.10;3.70;;;;;;;13.02;86.41;96093.28;5090366;28;20261;-65
2021/10/31 08:10:52;;;;;;;4.50;4.10;;;;;;;12.86;87.38;96080.09;5091189;28;20230;-66
2021/10/31 08:13:20;;;;;;;4.00;3.60;;;;;;;13.09;86.87;96086.72;5072338;28;20185;-65
2021/10/31 08:15:45;;;;;;;4.30;3.77;;;;;;;13.04;87.40;96081.44;5071321;28;20192;-65
2021/10/31 08:18:10;;;;;;;4.77;4.13;;;;;;;12.99;87.83;96091.16;5071373;28;20181;-65
2021/10/31 08:20:36;;;;;;;6.07;4.27;;;;;;;13.08;87.73;96094.88;5089360;28;20180;-66
2021/10/31 08:23:04;;;;;;;4.40;3.60;;;;;;;13.17;86.16;96102.03;5091505;28;20219;-66
2021/10/31 08:25:29;;;;;;;4.17;3.73;;;;;;;13.25;85.58;96095.47;5080584;28;20192;-65
2021/10/31 08:27:55;;;;;;;4.73;4.23;;;;;;;13.21;84.96;96092.56;5084706;28;20301;-66
2021/10/31 08:30:29;;;;;;;3.53;3.23;;;;;;;13.12;84.51;96099.38;5074994;28;20256;-65
2021/10/31 08:32:54;;;;;;;3.57;3.27;;;;;;;12.95;85.63;96111.13;5080190;28;20224;-66
2021/10/31 08:35:20;;;;;;;4.57;3.23;;;;;;;12.76;86.80;96095.81;5070687;28;20573;-66
2021/10/31 08:37:46;;;;;;;4.27;3.87;;;;;;;12.50;87.68;96102.00;5073447;28;20642;-67
2021/10/31 08:40:11;;;;;;;4.30;3.90;;;;;;;12.55;87.37;96103.84;5072185;28;20264;-66
2021/10/31 08:42:37;;;;;;;4.10;3.70;;;;;;;12.52;87.16;96101.75;5068785;28;20263;-66
2021/10/31 08:45:04;;;;;;;5.23;3.87;;;;;;;12.67;85.99;96093.94;5074618;28;20922;-66
2021/10/31 08:47:30;;;;;;;5.00;4.03;;;;;;;12.65;85.30;96086.28;5073635;28;20248;-65
2021/10/31 08:49:56;;;;;;;5.23;3.97;;;;;;;12.54;85.67;96092.53;5080868;28;20287;-66
2021/10/31 08:52:21;;;;;;;4.37;3.97;;;;;;;12.72;85.19;96084.22;5095021;28;20189;-64
2021/10/31 08:54:47;;;;;;;4.30;3.90;;;;;;;12.76;85.10;96079.25;5081357;28;20206;-63
2021/10/31 08:57:12;;;;;;;6.37;3.60;;;;;;;12.98;83.98;96071.19;5082820;28;20177;-65
2021/10/31 08:59:37;;;;;;;4.83;4.10;;;;;;;13.20;83.65;96071.78;5075394;28;20180;-64
2021/10/31 09:02:03;;;;;;;4.33;3.70;;;;;;;13.12;83.50;96069.66;5074183;28;20185;-65
2021/10/31 09:04:29;;;;;;;4.80;3.60;;;;;;;13.29;83.56;96070.22;5088735;28;20194;-65
2021/10/31 09:06:54;;;;;;;4.07;3.67;;;;;;;13.40;83.36;96071.03;5093686;28;20230;-64
2021/10/31 09:09:20;;;;;;;4.20;3.80;;;;;;;13.46;83.25;96062.88;5083396;28;20184;-64
2021/10/31 09:11:49;;;;;;;4.97;3.77;;;;;;;13.42;82.33;96059.19;5094328;28;20271;-64
2021/10/31 09:14:14;;;;;;;3.73;3.43;;;;;;;13.39;82.53;96064.16;5093031;28;20641;-65
2021/10/31 09:16:40;;;;;;;4.57;4.00;;;;;;;13.24;83.44;96057.06;5091827;28;20188;-65
2021/10/31 09:19:05;;;;;;;4.40;4.00;;;;;;;13.57;82.08;96061.03;5085170;28;20192;-65
2021/10/31 09:21:31;;;;;;;4.37;3.97;;;;;;;13.43;82.82;96062.63;5075725;28;20181;-65
2021/10/31 09:23:56;;;;;;;4.23;3.67;;;;;;;13.27;83.15;96053.88;5083262;28;20188;-67
2021/10/31 09:26:22;;;;;;;4.17;3.77;;;;;;;13.48;82.54;96044.19;5095201;28;20181;-65
2021/10/31 09:28:49;;;;;;;4.47;4.07;;;;;;;13.44;83.09;96038.63;5087769;28;20195;-66
2021/10/31 09:31:14;;;;;;;4.67;3.87;;;;;;;13.56;82.80;96035.75;5076298;28;20506;-65
2021/10/31 09:33:41;;;;;;;4.90;3.50;;;;;;;13.70;86.11;96039.44;5091166;28;20245;-65
2021/10/31 09:36:06;;;;;;;4.37;3.20;;;;;;;13.77;82.54;96039.16;5094945;28;20227;-65
2021/10/31 09:38:32;;;;;;;3.60;3.30;;;;;;;13.79;81.94;96032.59;5093300;28;20215;-64
2021/10/31 09:40:58;;;;;;;3.47;3.17;;;;;;;13.94;81.35;96029.13;5093204;28;20181;-66
2021/10/31 09:43:28;;;;;;;3.63;3.30;;;;;;;14.13;80.56;96025.69;5076743;28;20593;-65
2021/10/31 09:45:55;;;;;;;3.77;3.13;;;;;;;14.05;80.34;96023.59;5074926;28;20222;-66
2021/10/31 09:48:21;;;;;;;3.93;3.53;;;;;;;13.98;80.87;96017.81;5074786;28;20185;-66
2021/10/31 09:50:50;;;;;;;4.73;3.33;;;;;;;13.97;81.57;96010.19;5084950;28;20180;-65
2021/10/31 09:53:19;;;;;;;4.07;3.23;;;;;;;14.10;81.97;96012.22;5078104;28;20193;-65
2021/10/31 09:55:47;;;;;;;4.07;3.40;;;;;;;14.18;82.47;96006.44;5094284;28;20267;-65
2021/10/31 09:58:22;;;;;;;3.30;3.10;;;;;;;14.26;82.03;96003.25;5094401;28;20208;-65
2021/10/31 10:00:51;;;;;;;3.63;2.97;;;;;;;14.55;81.01;96006.06;5092396;28;20261;-64
2021/10/31 10:03:25;;;;;;;2.57;2.37;;;;;;;14.61;80.61;96004.97;5093803;28;20229;-65
2021/10/31 10:06:11;;;;;;;2.40;2.20;;;;;;;14.59;80.05;95999.19;5092582;28;20168;-65
2021/10/31 10:08:36;;;;;;;2.17;2.07;;;;;;;14.60;80.17;95992.09;5081824;28;20185;-69
2021/10/31 10:11:02;;;;;;;2.60;2.40;;;;;;;14.81;80.10;95994.34;5081532;28;20333;-67
2021/10/31 10:13:31;;;;;;;3.90;2.30;;;;;;;14.99;78.80;95992.91;5074174;28;20185;-66
2021/10/31 10:16:27;;;;;;;2.23;2.03;;;;;;;15.08;78.79;95986.00;5074173;28;20189;-66
2021/10/31 10:18:52;;;;;;;2.20;2.00;;;;;;;15.16;77.23;95980.13;5074324;28;20177;-65
2021/10/31 10:21:22;;;;;;;2.67;2.10;;;;;;;15.25;78.03;95978.47;5083130;28;20178;-67
2021/10/31 10:23:59;;;;;;;2.70;2.50;;;;;;;15.42;77.01;95978.09;5083396;28;20201;-63
2021/10/31 10:26:36;;;;;;;2.50;2.30;;;;;;;15.50;76.74;95972.19;5093739;28;20223;-65
2021/10/31 10:29:10;;;;;;;2.93;2.63;;;;;;;15.55;76.80;95976.69;5089450;28;20225;-65
2021/10/31 10:31:36;;;;;;;2.67;2.47;;;;;;;15.58;76.53;95970.84;5090695;28;20179;-65
2021/10/31 10:34:01;;;;;;;2.70;2.43;;;;;;;15.61;76.03;95963.16;5078512;28;20598;-67
2021/10/31 10:36:27;;;;;;;2.83;2.30;;;;;;;15.63;76.16;95965.53;5084288;28;20181;-65
2021/10/31 10:38:59;;;;;;;2.53;2.33;;;;;;;15.78;74.43;95954.81;5074364;28;20661;-65
2021/10/31 10:41:39;;;;;;;2.80;2.20;;;;;;;15.88;73.21;95952.06;5080609;28;20282;-65
2021/10/31 10:44:27;;;;;;;2.23;2.03;;;;;;;15.97;71.88;95952.25;5085398;28;20638;-66
2021/10/31 10:47:03;;;;;;;2.67;2.17;;;;;;;16.13;71.42;95949.16;5088569;28;20587;-65
2021/10/31 10:49:32;;;;;;;2.40;2.20;;;;;;;16.22;70.03;95941.38;5074085;28;20173;-66
2021/10/31 10:52:04;;;;;;;2.30;2.20;;;;;;;16.29;68.99;95936.53;5073930;28;20184;-65
2021/10/31 10:54:30;;;;;;;3.67;2.27;;;;;;;16.52;68.39;95934.91;5073645;28;20189;-64
2021/10/31 10:57:08;;;;;;;2.87;2.63;;;;;;;16.74;68.03;95932.53;5072825;28;20200;-64
2021/10/31 10:59:37;;;;;;;2.60;2.23;;;;;;;17.04;66.76;95931.31;5073355;28;20339;-64
2021/10/31 11:02:14;;;;;;;2.30;2.10;;;;;;;17.09;66.66;95919.84;5084422;28;20200;-63
2021/10/31 11:04:41;;;;;;;3.00;2.30;;;;;;;17.13;67.07;95915.53;5070733;28;20204;-63
2021/10/31 11:07:08;;;;;;;2.83;2.50;;;;;;;17.34;66.31;95914.13;5078493;28;20263;-64
2021/10/31 11:09:47;;;;;;;1.97;1.87;;;;;;;17.47;65.06;95916.03;5072703;28;20174;-63
2021/10/31 11:12:34;;;;;;;3.13;2.42;;;;;;;17.37;64.49;95901.09;5070691;28;20271;-63
2021/10/31 11:15:00;;;;;;;2.85;2.50;;;;;;;17.52;64.50;95897.41;5073968;28;20665;-63
2021/10/31 11:17:26;;;;;;;2.53;2.33;;;;;;;17.51;65.18;95889.72;5083482;28;20221;-63
2021/10/31 11:19:54;;;;;;;2.30;2.10;;;;;;;17.70;64.31;95883.31;5072466;28;20212;-63
2021/10/31 11:22:24;;;;;;;2.25;2.05;;;;;;;17.77;63.30;95880.28;5073319;28;20181;-64
2021/10/31 11:24:51;;;;;;;2.58;2.30;;;;;;;17.94;63.15;95874.41;5086214;28;20657;-65
2021/10/31 11:27:21;;;;;;;2.20;2.10;;;;;;;17.98;61.47;95878.03;5078792;28;20189;-63
2021/10/31 11:29:49;;;;;;;2.83;2.20;;;;;;;18.03;62.16;95877.94;5072439;28;20253;-64
2021/10/31 11:32:17;;;;;;;2.05;1.80;;;;;;;18.03;61.08;95875.28;5082101;28;20187;-64
2021/10/31 11:34:47;;;;;;;2.33;2.13;;;;;;;18.15;60.32;95871.06;5092366;28;20180;-63
2021/10/31 11:37:16;;;;;;;2.00;1.90;;;;;;;18.37;59.92;95866.88;5090691;28;20180;-63